Astún, Francia

4:38 AM CET en Noviembre 25, 2017 (GMT +0100)
Bruges-Capbis-Mifaget | | Change Station

Alt 1154 ft 43.12 °N, 0.31 °W | Updated 18 minutes ago

Lluvia
Lluvia
51.3 ° F
Sensación térmica 51.3 ° F
N
0.0
Viento Variable Viento desde Norte
Gusts 1.2 mph

Hoy
Alta -- | Baja -- ° F
--% Posibilidad de precipitaciones
Ayer
Alta -- | Baja -- ° F
Precip. -- pul
Presión 30.04 pul
Visibilidad -9999.0 Millas
Nubes Nubes dispersas 500 ft
Muy nublado 900 ft
Muy nublado 1700 ft
Punto de rocío 50 ° F
Humedad 96%
Precipitaciones 0.02 pul
Espesor de la nieve No disponible.
8:06 AM 5:30 PM
Creciente, 35% visible
METAR LFBP 250330Z AUTO 22003KT 200V260 4600 RA BR SCT005 BKN009 BKN017 11/10 Q1017 TEMPO 1500 BR BKN003 OVC010 OVC030
Presión 30.04 pul
Visibilidad -9999.0 Millas
Nubes Nubes dispersas 500 ft
Muy nublado 900 ft
Muy nublado 1700 ft
Punto de rocío 50 ° F
Humedad 96%
Precipitaciones 0.02 pul
Espesor de la nieve No disponible.
8:06 AM 5:30 PM
Creciente, 35% visible
METAR LFBP 250330Z AUTO 22003KT 200V260 4600 RA BR SCT005 BKN009 BKN017 11/10 Q1017 TEMPO 1500 BR BKN003 OVC010 OVC030

Get Severe Weather Alerts

Thanks for signing up!

Be on the lookout for a verification email in your inbox.

You'll start receiving the daily forecast at 6 AM.

×

10-Day Weather Forecast

×

Almanac

Astronomía

Nov. 25, 2017 Salida Puesta
Hora real
Crepúsculo civil
Crepúsculo náutico
Crepúsculo astronómico
Luna
Horas de luz
Horas de luz
Tomorrow will be .
, % of the Moon is Illuminated

Extremos de hoy

Máximos del país Bajas del país

Community

WunderPhotos

Category 6

Welcome to Category 6. This is the collective home for Weather Underground's featured writeups by Dr. Jeff Masters (right), Bob Henson (left), Chris Burt, and other regular contributors.

Nearby

Calidad del aire

  Calidad del aire Índice AQ Contaminante
Not available.

Grosos de nieve

Estación Profundido Altura

Actividad de terremotos

Ciudad Distance Mag. Tiempo y dato
Magnitud mínima muestra es 2,5.

Temperaturas de aguas costeras

Lugar Temperatura

Stations

Estaciones meteorológicas cercanas

Ubicación de la estación Temp. Vientos helados Punto de rocío Humedad Viento Precip. Alt Actualizado Tipo